Time;durP1;ratioP1;P1;durP2;ratioP2;P2;SDS_P1;SDS_P2;PMS_P1;PMS_P2;Temp;Humidity;BMP_temperature;BMP_pressure;BME280_temperature;BME280_humidity;BME280_pressure;Samples;Min_cycle;Max_cycle;Signal;HPM_P1;HPM_P2
2023/05/13 00:01:28;;;;;;;;;;;14.00;96.10;;;;;;6130381;23;19941;-96
2023/05/13 00:04:06;;;;;;;;;;;14.10;96.10;;;;;;6128504;23;19908;-96
2023/05/13 00:06:52;;;;;;;;;;;14.10;96.10;;;;;;6103961;23;19951;-95
2023/05/13 00:09:37;;;;;;;;;;;14.10;96.20;;;;;;6127572;23;19905;-96
2023/05/13 00:12:31;;;;;;;;;;;14.10;96.20;;;;;;6128791;23;19905;-96
2023/05/13 00:15:23;;;;;;;;;;;14.10;96.20;;;;;;6129143;23;19905;-96
2023/05/13 00:18:09;;;;;;;;;;;14.10;96.20;;;;;;6128072;23;19907;-96
2023/05/13 00:20:55;;;;;;;;;;;14.10;96.50;;;;;;6103888;23;19907;-96
2023/05/13 00:23:51;;;;;;;;;;;14.10;96.20;;;;;;6127794;23;19975;-95
2023/05/13 00:26:39;;;;;;;;;;;14.10;96.10;;;;;;6102871;23;19976;-96
2023/05/13 00:29:05;;;;;;;;;;;14.10;96.20;;;;;;6127778;23;19911;-96
2023/05/13 00:31:51;;;;;;;;;;;14.10;96.20;;;;;;6127209;23;19932;-96
2023/05/13 00:34:37;;;;;;;;;;;14.10;96.20;;;;;;6102147;23;20027;-96
2023/05/13 00:37:27;;;;;;;;;;;14.10;96.20;;;;;;6127557;23;20303;-96
2023/05/13 00:40:16;;;;;;;;;;;14.10;96.20;;;;;;6102739;23;19901;-96
2023/05/13 00:43:02;;;;;;;;;;;14.10;96.20;;;;;;6100975;23;19901;-96
2023/05/13 00:45:57;;;;;;;;;;;14.10;96.20;;;;;;6128158;23;19904;-96
2023/05/13 00:48:46;;;;;;;;;;;14.10;96.20;;;;;;6102758;23;20315;-96
2023/05/13 00:51:32;;;;;;;;;;;14.10;96.20;;;;;;6124332;23;19905;-96
2023/05/13 00:54:17;;;;;;;;;;;14.10;96.20;;;;;;6100285;23;19905;-96
2023/05/13 00:57:22;;;;;;;;;;;14.10;96.10;;;;;;6141776;23;19924;-96
2023/05/13 01:00:11;;;;;;;;;;;14.00;96.10;;;;;;6130738;23;19935;-96
2023/05/13 01:02:57;;;;;;;;;;;14.00;96.20;;;;;;6130157;23;19901;-96
2023/05/13 01:05:44;;;;;;;;;;;14.00;96.10;;;;;;6129318;23;19901;-95
2023/05/13 01:08:16;;;;;;;;;;;14.00;96.20;;;;;;6155926;23;19920;-96
2023/05/13 01:11:05;;;;;;;;;;;14.00;96.20;;;;;;6156604;23;19905;-96
2023/05/13 01:13:51;;;;;;;;;;;14.00;96.20;;;;;;6129565;23;19908;-96
2023/05/13 01:16:37;;;;;;;;;;;14.00;96.20;;;;;;6130608;23;19979;-96
2023/05/13 01:19:26;;;;;;;;;;;14.00;96.20;;;;;;6131454;23;19955;-96
2023/05/13 01:22:07;;;;;;;;;;;14.00;96.20;;;;;;6129504;23;20314;-96
2023/05/13 01:24:33;;;;;;;;;;;14.00;96.20;;;;;;6106570;23;19908;-96
2023/05/13 01:27:19;;;;;;;;;;;14.00;96.20;;;;;;6107149;23;19983;-96
2023/05/13 01:30:04;;;;;;;;;;;14.00;96.20;;;;;;6132372;23;19905;-96
2023/05/13 01:32:53;;;;;;;;;;;14.00;96.20;;;;;;6133342;23;20342;-96
2023/05/13 01:35:44;;;;;;;;;;;14.00;96.20;;;;;;6159019;23;19901;-96
2023/05/13 01:38:30;;;;;;;;;;;14.00;96.20;;;;;;6131468;23;19955;-96
2023/05/13 01:41:05;;;;;;;;;;;14.00;96.20;;;;;;6159034;23;20373;-96
2023/05/13 01:43:54;;;;;;;;;;;14.00;96.20;;;;;;6110504;23;19905;-96
2023/05/13 01:46:42;;;;;;;;;;;14.00;96.20;;;;;;6135046;23;20010;-96
2023/05/13 01:49:28;;;;;;;;;;;14.00;96.20;;;;;;6135154;23;20349;-96
2023/05/13 01:52:14;;;;;;;;;;;14.00;96.20;;;;;;6133719;23;20226;-95
2023/05/13 01:55:00;;;;;;;;;;;14.00;96.30;;;;;;6133081;23;19900;-96
2023/05/13 01:57:52;;;;;;;;;;;14.00;96.30;;;;;;6133409;23;19916;-96
2023/05/13 02:00:38;;;;;;;;;;;13.90;96.30;;;;;;6134424;23;19900;-96
2023/05/13 02:03:24;;;;;;;;;;;14.00;96.30;;;;;;6136146;23;19908;-96
2023/05/13 02:06:16;;;;;;;;;;;14.00;96.20;;;;;;6157788;23;19924;-96
2023/05/13 02:09:05;;;;;;;;;;;13.90;96.20;;;;;;6134184;23;19987;-96
2023/05/13 02:11:54;;;;;;;;;;;13.90;96.30;;;;;;6133461;23;20342;-96
2023/05/13 02:15:01;;;;;;;;;;;13.90;96.30;;;;;;6159130;23;19920;-96
2023/05/13 02:18:07;;;;;;;;;;;13.90;96.30;;;;;;6161960;23;20431;-96
2023/05/13 02:20:52;;;;;;;;;;;13.90;96.30;;;;;;6136108;23;19965;-96
2023/05/13 02:23:40;;;;;;;;;;;14.00;96.30;;;;;;6131344;23;19901;-96
2023/05/13 02:26:49;;;;;;;;;;;14.00;96.30;;;;;;6159312;23;20298;-96
2023/05/13 02:29:38;;;;;;;;;;;13.90;96.30;;;;;;6134658;23;20314;-96
2023/05/13 02:32:24;;;;;;;;;;;13.90;96.30;;;;;;6136979;23;19928;-96
2023/05/13 02:35:13;;;;;;;;;;;13.90;96.30;;;;;;6159506;23;19975;-96
2023/05/13 02:37:59;;;;;;;;;;;13.90;96.30;;;;;;6134459;23;19900;-96
2023/05/13 02:40:48;;;;;;;;;;;13.90;96.30;;;;;;6135253;23;19907;-96
2023/05/13 02:43:34;;;;;;;;;;;13.90;96.30;;;;;;6131384;23;20258;-96
2023/05/13 02:46:24;;;;;;;;;;;13.90;96.30;;;;;;6159265;23;19936;-96
2023/05/13 02:49:13;;;;;;;;;;;13.90;96.30;;;;;;6135092;23;19911;-96
2023/05/13 02:51:58;;;;;;;;;;;14.10;96.40;;;;;;6133942;23;19988;-96
2023/05/13 02:54:44;;;;;;;;;;;13.90;96.30;;;;;;6133994;23;19919;-96
2023/05/13 02:57:30;;;;;;;;;;;13.90;96.60;;;;;;6136014;23;19908;-96
2023/05/13 03:00:18;;;;;;;;;;;13.90;96.30;;;;;;6160818;23;19908;-96
2023/05/13 03:03:04;;;;;;;;;;;13.90;96.30;;;;;;6127922;23;19901;-96
2023/05/13 03:05:50;;;;;;;;;;;14.00;96.30;;;;;;6136628;23;19947;-96
2023/05/13 03:08:41;;;;;;;;;;;13.90;96.30;;;;;;6133150;23;20411;-96
2023/05/13 03:11:27;;;;;;;;;;;13.80;96.30;;;;;;6135957;23;19928;-96
2023/05/13 03:14:21;;;;;;;;;;;13.90;96.30;;;;;;6135842;23;19901;-96
2023/05/13 03:17:08;;;;;;;;;;;13.90;96.30;;;;;;6159688;23;19908;-96
2023/05/13 03:20:06;;;;;;;;;;;13.90;96.30;;;;;;6138437;23;19904;-96
2023/05/13 03:22:43;;;;;;;;;;;14.20;96.40;;;;;;6164348;23;19908;-96
2023/05/13 03:25:29;;;;;;;;;;;13.90;96.30;;;;;;6111519;23;19912;-96
2023/05/13 03:28:20;;;;;;;;;;;13.90;96.30;;;;;;6137025;23;20027;-96
2023/05/13 03:31:06;;;;;;;;;;;13.90;96.30;;;;;;6134293;23;20374;-96
2023/05/13 03:33:52;;;;;;;;;;;13.90;96.30;;;;;;6135070;23;19908;-96
2023/05/13 03:36:38;;;;;;;;;;;13.90;96.40;;;;;;6133591;23;19900;-96
2023/05/13 03:39:26;;;;;;;;;;;13.90;96.40;;;;;;6134886;23;19908;-96
2023/05/13 03:42:12;;;;;;;;;;;13.90;96.40;;;;;;6135597;23;19904;-96
2023/05/13 03:45:25;;;;;;;;;;;13.80;96.40;;;;;;6160847;23;19920;-96
2023/05/13 03:48:13;;;;;;;;;;;13.80;96.40;;;;;;6160701;23;19916;-96
2023/05/13 03:51:00;;;;;;;;;;;13.90;96.40;;;;;;6158416;23;19901;-96
2023/05/13 03:53:46;;;;;;;;;;;13.90;96.40;;;;;;6160048;23;19911;-96
2023/05/13 03:56:32;;;;;;;;;;;13.90;96.40;;;;;;6132512;23;19904;-96
2023/05/13 03:59:33;;;;;;;;;;;13.90;96.40;;;;;;6133685;23;19952;-96
2023/05/13 04:02:20;;;;;;;;;;;13.80;96.40;;;;;;6135809;23;19904;-96
2023/05/13 04:05:10;;;;;;;;;;;13.80;96.40;;;;;;6162816;23;19907;-96
2023/05/13 04:07:56;;;;;;;;;;;13.80;96.40;;;;;;6136191;23;19908;-96
2023/05/13 04:10:41;;;;;;;;;;;13.90;96.40;;;;;;6132666;23;20380;-96
2023/05/13 04:13:30;;;;;;;;;;;13.80;96.40;;;;;;6160180;23;19901;-96
2023/05/13 04:16:16;;;;;;;;;;;13.80;96.40;;;;;;6156271;23;19906;-96
2023/05/13 04:18:49;;;;;;;;;;;13.80;96.40;;;;;;6109571;23;19904;-96
2023/05/13 04:21:39;;;;;;;;;;;13.80;96.40;;;;;;6135788;23;20386;-96
2023/05/13 04:24:25;;;;;;;;;;;13.80;96.40;;;;;;6133945;23;20405;-96
2023/05/13 04:27:14;;;;;;;;;;;13.80;96.40;;;;;;6157736;23;20314;-96
2023/05/13 04:30:05;;;;;;;;;;;13.80;96.40;;;;;;6132710;23;19944;-96
2023/05/13 04:33:05;;;;;;;;;;;13.80;96.40;;;;;;6154374;23;19909;-96
2023/05/13 04:35:54;;;;;;;;;;;13.80;96.40;;;;;;6157895;23;19901;-96
2023/05/13 04:38:29;;;;;;;;;;;13.80;96.40;;;;;;6131222;23;19901;-96
2023/05/13 04:41:17;;;;;;;;;;;13.80;96.40;;;;;;6131710;23;19901;-96
2023/05/13 04:44:05;;;;;;;;;;;13.80;96.40;;;;;;6134521;23;19904;-96
2023/05/13 04:46:50;;;;;;;;;;;13.80;96.40;;;;;;6132855;23;19943;-96
2023/05/13 04:49:25;;;;;;;;;;;13.80;96.40;;;;;;6158237;23;19911;-96
2023/05/13 04:52:12;;;;;;;;;;;13.80;96.40;;;;;;6132754;23;19980;-96
2023/05/13 04:55:03;;;;;;;;;;;13.80;96.40;;;;;;6157707;23;19931;-96
2023/05/13 04:57:49;;;;;;;;;;;13.80;96.50;;;;;;6132729;23;19913;-96
2023/05/13 05:00:43;;;;;;;;;;;13.90;96.50;;;;;;6158349;23;19907;-96
2023/05/13 05:03:29;;;;;;;;;;;13.80;96.40;;;;;;6157127;23;19972;-96
2023/05/13 05:06:18;;;;;;;;;;;13.80;96.40;;;;;;6132439;23;19900;-96
2023/05/13 05:09:04;;;;;;;;;;;13.80;96.40;;;;;;6131291;23;19905;-96
2023/05/13 05:11:34;;;;;;;;;;;13.80;96.40;;;;;;6131604;23;19900;-95
2023/05/13 05:14:35;;;;;;;;;;;13.80;96.40;;;;;;6108310;23;20207;-96
2023/05/13 05:17:03;;;;;;;;;;;13.80;96.30;;;;;;6129791;23;19900;-96
2023/05/13 05:19:49;;;;;;;;;;;13.80;96.40;;;;;;6106593;23;19905;-96
2023/05/13 05:22:35;;;;;;;;;;;13.80;96.30;;;;;;6132280;23;19975;-96
2023/05/13 05:25:03;;;;;;;;;;;13.80;96.30;;;;;;6133746;23;19905;-96
2023/05/13 05:27:48;;;;;;;;;;;13.80;96.30;;;;;;6107786;23;19987;-96
2023/05/13 05:30:40;;;;;;;;;;;13.80;96.40;;;;;;6157653;23;19901;-96
2023/05/13 05:33:26;;;;;;;;;;;13.80;96.40;;;;;;6130031;23;19923;-96
2023/05/13 05:36:14;;;;;;;;;;;13.80;96.40;;;;;;6158545;23;20295;-96
2023/05/13 05:38:47;;;;;;;;;;;13.80;96.40;;;;;;6158030;23;19907;-96
2023/05/13 05:41:35;;;;;;;;;;;13.80;96.40;;;;;;6133180;23;19924;-96
2023/05/13 05:44:21;;;;;;;;;;;13.80;96.40;;;;;;6134072;23;19901;-96
2023/05/13 05:47:07;;;;;;;;;;;13.80;96.40;;;;;;6133242;23;19931;-96
2023/05/13 05:49:33;;;;;;;;;;;13.80;96.40;;;;;;6130733;23;19905;-96
2023/05/13 05:52:19;;;;;;;;;;;13.80;96.40;;;;;;6106203;23;19909;-96
2023/05/13 05:55:11;;;;;;;;;;;13.80;96.40;;;;;;6160117;23;19924;-96
2023/05/13 05:57:56;;;;;;;;;;;13.80;96.40;;;;;;6132654;23;20223;-96
2023/05/13 06:00:32;;;;;;;;;;;13.80;96.40;;;;;;6129576;23;19911;-96
2023/05/13 06:03:17;;;;;;;;;;;13.80;96.40;;;;;;6108838;23;19904;-96
2023/05/13 06:05:44;;;;;;;;;;;13.80;96.40;;;;;;6159352;23;19901;-96
2023/05/13 06:08:11;;;;;;;;;;;13.80;96.40;;;;;;6135710;23;19904;-96
2023/05/13 06:11:07;;;;;;;;;;;13.80;96.40;;;;;;6108005;23;19908;-96
2023/05/13 06:13:56;;;;;;;;;;;13.80;96.40;;;;;;6159305;23;19905;-96
2023/05/13 06:16:41;;;;;;;;;;;13.80;96.40;;;;;;6133772;23;19900;-96
2023/05/13 06:19:28;;;;;;;;;;;13.80;96.40;;;;;;6160068;23;20230;-95
2023/05/13 06:22:14;;;;;;;;;;;13.80;96.40;;;;;;6160788;23;19907;-96
2023/05/13 06:25:02;;;;;;;;;;;13.80;96.40;;;;;;6158973;23;19900;-96
2023/05/13 06:28:07;;;;;;;;;;;13.80;96.30;;;;;;6162355;23;20318;-96
2023/05/13 06:30:53;;;;;;;;;;;13.80;96.40;;;;;;6132961;23;19901;-96
2023/05/13 06:33:19;;;;;;;;;;;13.80;96.30;;;;;;6133081;23;19901;-96
2023/05/13 06:36:05;;;;;;;;;;;13.80;96.30;;;;;;6110022;23;19908;-96
2023/05/13 06:38:50;;;;;;;;;;;13.80;96.30;;;;;;6162039;23;19901;-96
2023/05/13 06:41:37;;;;;;;;;;;13.80;96.30;;;;;;6112862;23;19905;-96
2023/05/13 06:44:07;;;;;;;;;;;13.80;96.30;;;;;;6134041;23;19932;-96
2023/05/13 06:46:55;;;;;;;;;;;13.80;96.30;;;;;;6137310;23;19944;-96
2023/05/13 06:49:44;;;;;;;;;;;13.80;96.30;;;;;;6110641;23;19909;-96
2023/05/13 06:52:30;;;;;;;;;;;13.80;96.30;;;;;;6133617;23;19900;-96
2023/05/13 06:55:17;;;;;;;;;;;13.80;96.30;;;;;;6135571;23;19996;-96
2023/05/13 06:57:46;;;;;;;;;;;13.80;96.30;;;;;;6135091;23;19908;-96
2023/05/13 07:00:34;;;;;;;;;;;13.80;96.20;;;;;;6132971;23;19901;-96
2023/05/13 07:03:37;;;;;;;;;;;13.80;96.20;;;;;;6161070;23;19912;-96
2023/05/13 07:06:27;;;;;;;;;;;13.80;96.20;;;;;;6158631;23;19955;-96
2023/05/13 07:09:17;;;;;;;;;;;13.80;96.20;;;;;;6135746;23;19913;-96
2023/05/13 07:11:47;;;;;;;;;;;13.80;96.20;;;;;;6127902;23;20233;-96
2023/05/13 07:14:33;;;;;;;;;;;13.80;96.50;;;;;;6111272;23;19905;-96
2023/05/13 07:17:18;;;;;;;;;;;13.80;96.20;;;;;;6133224;23;19904;-96
2023/05/13 07:20:04;;;;;;;;;;;13.80;96.10;;;;;;6134553;23;19900;-96
2023/05/13 07:22:56;;;;;;;;;;;13.80;96.20;;;;;;6161333;23;19984;-96
2023/05/13 07:25:45;;;;;;;;;;;13.80;96.10;;;;;;6044417;23;20271;-96
2023/05/13 07:28:11;;;;;;;;;;;13.80;96.10;;;;;;6049181;23;19909;-95
2023/05/13 07:31:04;;;;;;;;;;;13.80;96.10;;;;;;6052065;23;20223;-96
2023/05/13 07:33:52;;;;;;;;;;;13.90;96.10;;;;;;6051820;23;19901;-96
2023/05/13 07:36:19;;;;;;;;;;;13.90;96.10;;;;;;6048301;23;19901;-96
2023/05/13 07:39:04;;;;;;;;;;;13.90;96.10;;;;;;6025376;23;19905;-96
2023/05/13 07:42:07;;;;;;;;;;;13.90;96.10;;;;;;6024643;23;19902;-96
2023/05/13 07:45:07;;;;;;;;;;;13.90;96.10;;;;;;6070313;23;19976;-96
2023/05/13 07:47:53;;;;;;;;;;;13.90;96.00;;;;;;6054672;23;19921;-96
2023/05/13 07:50:22;;;;;;;;;;;13.90;96.00;;;;;;6050759;23;19902;-96
2023/05/13 07:56:15;;;;;;;;;;;13.90;96.00;;;;;;6043530;23;19908;-96
2023/05/13 07:59:11;;;;;;;;;;;13.90;96.00;;;;;;6075393;23;19916;-96
2023/05/13 08:02:08;;;;;;;;;;;13.90;96.00;;;;;;6054513;23;19905;-96
2023/05/13 08:05:07;;;;;;;;;;;14.20;96.10;;;;;;6075801;23;19925;-96
2023/05/13 08:11:03;;;;;;;;;;;13.90;96.00;;;;;;5966321;24;19914;-96
2023/05/13 08:14:24;;;;;;;;;;;13.90;96.00;;;;;;5966263;24;19899;-96
2023/05/13 08:17:18;;;;;;;;;;;13.90;96.00;;;;;;5967408;24;19903;-96
2023/05/13 08:20:28;;;;;;;;;;;;;;;;;;;;;
2023/05/13 08:23:22;;;;;;;;;;;14.20;96.10;;;;;;5964384;24;19909;-96
2023/05/13 08:26:18;;;;;;;;;;;13.90;96.00;;;;;;5941581;24;19903;-96
2023/05/13 08:29:22;;;;;;;;;;;13.90;96.00;;;;;;5940205;24;19956;-96
2023/05/13 08:32:35;;;;;;;;;;;;;;;;;;;;;
2023/05/13 08:35:32;;;;;;;;;;;;;;;;;;;;;
2023/05/13 08:38:31;;;;;;;;;;;13.80;96.00;;;;;;5909717;24;19923;-96
2023/05/13 08:41:25;;;;;;;;;;;13.90;96.00;;;;;;5891501;24;19914;-96
2023/05/13 08:44:12;;;;;;;;;;;13.90;96.00;;;;;;5914886;24;19910;-96
2023/05/13 08:47:41;;;;;;;;;;;14.00;96.00;;;;;;5912331;24;19910;-96
2023/05/13 08:50:11;;;;;;;;;;;13.90;96.00;;;;;;5981311;24;19910;-96
2023/05/13 08:53:10;;;;;;;;;;;13.90;95.90;;;;;;5993327;24;19917;-96
2023/05/13 08:55:59;;;;;;;;;;;13.90;95.90;;;;;;5994657;23;19937;-96
2023/05/13 08:58:53;;;;;;;;;;;13.90;95.90;;;;;;6047425;23;20017;-96
2023/05/13 09:01:43;;;;;;;;;;;13.90;95.90;;;;;;6049327;23;19909;-96
2023/05/13 09:04:30;;;;;;;;;;;13.90;95.90;;;;;;6023149;23;20356;-96
2023/05/13 09:07:26;;;;;;;;;;;13.90;95.90;;;;;;6046254;23;20316;-96
2023/05/13 09:10:23;;;;;;;;;;;13.90;95.90;;;;;;5960852;24;19935;-96
2023/05/13 09:13:10;;;;;;;;;;;13.90;95.90;;;;;;6046654;23;19902;-96
2023/05/13 09:15:58;;;;;;;;;;;13.90;95.90;;;;;;6024735;23;19902;-96
2023/05/13 09:18:53;;;;;;;;;;;13.90;95.90;;;;;;6024944;23;19902;-96
2023/05/13 09:21:51;;;;;;;;;;;13.90;95.90;;;;;;6025157;23;19909;-96
2023/05/13 09:24:40;;;;;;;;;;;13.90;95.90;;;;;;6021161;23;19922;-96
2023/05/13 09:27:57;;;;;;;;;;;13.90;95.90;;;;;;6042230;23;19901;-96
2023/05/13 09:30:56;;;;;;;;;;;13.90;95.90;;;;;;6025655;23;19908;-96
2023/05/13 09:33:57;;;;;;;;;;;13.90;95.90;;;;;;6049768;23;19926;-96
2023/05/13 09:36:55;;;;;;;;;;;13.90;95.90;;;;;;6022933;23;20079;-96
2023/05/13 09:43:03;;;;;;;;;;;13.90;95.90;;;;;;6164510;23;19904;-96
2023/05/13 09:45:58;;;;;;;;;;;13.90;95.90;;;;;;6136044;23;19901;-96
2023/05/13 09:48:56;;;;;;;;;;;13.90;95.90;;;;;;6160122;23;20285;-96
2023/05/13 09:51:45;;;;;;;;;;;13.90;95.90;;;;;;6141246;23;19908;-96
2023/05/13 09:55:03;;;;;;;;;;;13.90;95.90;;;;;;6162688;23;19947;-96
2023/05/13 09:57:58;;;;;;;;;;;13.90;95.90;;;;;;6167766;23;19901;-96
2023/05/13 10:03:50;;;;;;;;;;;13.90;95.90;;;;;;6076556;23;19902;-96
2023/05/13 10:06:38;;;;;;;;;;;13.90;95.90;;;;;;6053224;23;19905;-96
2023/05/13 10:09:48;;;;;;;;;;;13.90;95.90;;;;;;6075267;23;19909;-96
2023/05/13 10:12:45;;;;;;;;;;;13.90;95.90;;;;;;6049449;23;19902;-96
2023/05/13 10:15:53;;;;;;;;;;;13.90;95.80;;;;;;6050139;23;20114;-96
2023/05/13 10:19:03;;;;;;;;;;;14.00;95.90;;;;;;6075842;23;19901;-96
2023/05/13 10:21:53;;;;;;;;;;;13.80;95.80;;;;;;6070913;23;19981;-96
2023/05/13 10:24:41;;;;;;;;;;;13.90;95.80;;;;;;6049974;23;19902;-96
2023/05/13 10:27:30;;;;;;;;;;;13.90;95.90;;;;;;6051061;23;20648;-96
2023/05/13 10:29:59;;;;;;;;;;;13.90;95.90;;;;;;6049410;23;19984;-96
2023/05/13 10:32:29;;;;;;;;;;;13.90;95.90;;;;;;6027153;23;19929;-96
2023/05/13 10:35:15;;;;;;;;;;;13.90;95.80;;;;;;6028318;23;19906;-96
2023/05/13 10:37:51;;;;;;;;;;;;;;;;;;;;;
2023/05/13 10:40:26;;;;;;;;;;;13.90;95.80;;;;;;6062419;23;19991;-96
2023/05/13 10:43:31;;;;;;;;;;;13.90;95.80;;;;;;6076207;23;20398;-96
2023/05/13 10:46:34;;;;;;;;;;;14.00;95.90;;;;;;6073054;23;19902;-96
2023/05/13 10:50:05;;;;;;;;;;;13.90;95.80;;;;;;6053290;23;19912;-96
2023/05/13 10:52:31;;;;;;;;;;;13.90;95.80;;;;;;5993299;24;19903;-96
2023/05/13 10:55:25;;;;;;;;;;;13.90;95.90;;;;;;5999671;23;19939;-96
2023/05/13 10:58:33;;;;;;;;;;;13.90;95.80;;;;;;5967219;24;20352;-96
2023/05/13 11:01:34;;;;;;;;;;;13.90;95.80;;;;;;5937297;24;19960;-96
2023/05/13 11:10:32;;;;;;;;;;;13.90;95.80;;;;;;5937319;24;20410;-96
2023/05/13 11:13:12;;;;;;;;;;;14.00;95.80;;;;;;5913746;24;19970;-96
2023/05/13 11:16:10;;;;;;;;;;;13.90;95.80;;;;;;5912883;24;20009;-96
2023/05/13 11:18:58;;;;;;;;;;;14.20;95.80;;;;;;5961802;24;19981;-96
2023/05/13 11:21:56;;;;;;;;;;;13.90;95.80;;;;;;5971816;24;19903;-96
2023/05/13 11:24:51;;;;;;;;;;;13.90;95.80;;;;;;5992422;24;19927;-96
2023/05/13 11:27:47;;;;;;;;;;;;;;;;;;;;;
2023/05/13 11:30:42;;;;;;;;;;;13.90;95.80;;;;;;6173073;23;19912;-96
2023/05/13 11:33:36;;;;;;;;;;;13.90;95.80;;;;;;6168841;23;19953;-96
2023/05/13 11:36:44;;;;;;;;;;;13.90;95.80;;;;;;6165275;23;19885;-96
2023/05/13 11:39:26;;;;;;;;;;;;;;;;;;;;;
2023/05/13 11:48:50;;;;;;;;;;;14.00;95.80;;;;;;5966651;24;19975;-96
2023/05/13 11:51:38;;;;;;;;;;;13.90;95.80;;;;;;5944779;24;19919;-96
2023/05/13 11:57:49;;;;;;;;;;;14.00;95.80;;;;;;5913005;24;19921;-96
2023/05/13 12:00:54;;;;;;;;;;;;;;;;;;;;;
2023/05/13 12:03:50;;;;;;;;;;;14.00;95.80;;;;;;5906738;24;20433;-96
2023/05/13 12:06:36;;;;;;;;;;;13.90;95.70;;;;;;5909534;24;19904;-96
2023/05/13 12:09:25;;;;;;;;;;;14.00;95.80;;;;;;5910417;24;19927;-96
2023/05/13 12:12:12;;;;;;;;;;;14.00;95.70;;;;;;5911538;24;19903;-96
2023/05/13 12:15:02;;;;;;;;;;;14.00;95.80;;;;;;5907772;24;19904;-96
2023/05/13 12:17:48;;;;;;;;;;;14.00;95.80;;;;;;5908823;24;19978;-96
2023/05/13 12:20:40;;;;;;;;;;;14.00;95.70;;;;;;5906858;24;19935;-96
2023/05/13 12:23:29;;;;;;;;;;;14.00;95.70;;;;;;5907706;24;19947;-96
2023/05/13 12:26:46;;;;;;;;;;;14.00;95.70;;;;;;6064269;23;19917;-96
2023/05/13 12:29:34;;;;;;;;;;;14.00;95.70;;;;;;6052224;23;19916;-96
2023/05/13 12:32:26;;;;;;;;;;;14.00;95.70;;;;;;6026437;23;19902;-96
2023/05/13 12:35:20;;;;;;;;;;;14.20;95.80;;;;;;6082850;23;20335;-96
2023/05/13 12:41:24;;;;;;;;;;;14.00;95.70;;;;;;6105620;23;19954;-96
2023/05/13 12:44:24;;;;;;;;;;;14.00;95.70;;;;;;6083686;23;19958;-96
2023/05/13 12:47:21;;;;;;;;;;;;;;;;;;;;;
2023/05/13 12:50:14;;;;;;;;;;;14.00;95.70;;;;;;6104134;23;19996;-96
2023/05/13 12:53:00;;;;;;;;;;;14.00;95.70;;;;;;6119112;23;19908;-96
2023/05/13 12:55:46;;;;;;;;;;;14.00;95.70;;;;;;6138377;23;19901;-96
2023/05/13 12:58:51;;;;;;;;;;;14.00;95.70;;;;;;6168345;23;19935;-96
2023/05/13 13:01:43;;;;;;;;;;;14.00;95.70;;;;;;6168360;23;19912;-96
2023/05/13 13:07:40;;;;;;;;;;;14.00;95.70;;;;;;6078341;23;19905;-96
2023/05/13 13:10:26;;;;;;;;;;;14.00;95.70;;;;;;6055325;23;19953;-96
2023/05/13 13:13:17;;;;;;;;;;;14.00;95.70;;;;;;6079081;23;19909;-96
2023/05/13 13:16:14;;;;;;;;;;;14.00;95.70;;;;;;6077236;23;19906;-96
2023/05/13 13:19:01;;;;;;;;;;;14.00;95.70;;;;;;6056047;23;20320;-96
2023/05/13 13:21:50;;;;;;;;;;;14.00;95.70;;;;;;6055070;23;20279;-96
2023/05/13 13:24:22;;;;;;;;;;;14.00;95.70;;;;;;6080681;23;20371;-96
2023/05/13 13:27:30;;;;;;;;;;;14.00;95.70;;;;;;6078702;23;19908;-96
2023/05/13 13:30:15;;;;;;;;;;;14.00;95.60;;;;;;6056920;23;20371;-96
2023/05/13 13:33:13;;;;;;;;;;;;;;;;;;;;;
2023/05/13 13:36:16;;;;;;;;;;;14.00;95.60;;;;;;6080139;23;20283;-96
2023/05/13 13:39:10;;;;;;;;;;;14.00;96.00;;;;;;6081457;23;19968;-96
2023/05/13 13:41:51;;;;;;;;;;;14.10;95.60;;;;;;6055729;23;19902;-96
2023/05/13 13:47:57;;;;;;;;;;;14.00;95.60;;;;;;6169001;23;19900;-96
2023/05/13 13:50:52;;;;;;;;;;;14.10;95.60;;;;;;6171231;23;19936;-96
2023/05/13 13:53:39;;;;;;;;;;;14.10;95.60;;;;;;6145468;23;19905;-96
2023/05/13 13:56:32;;;;;;;;;;;14.10;95.60;;;;;;6168061;23;19901;-96
2023/05/13 13:59:02;;;;;;;;;;;14.10;95.60;;;;;;6145150;23;19911;-96
2023/05/13 14:01:55;;;;;;;;;;;14.10;95.90;;;;;;6100099;23;19935;-96
2023/05/13 14:04:58;;;;;;;;;;;14.10;95.60;;;;;;6080531;23;19960;-96
2023/05/13 14:07:48;;;;;;;;;;;14.10;95.60;;;;;;6053079;23;19982;-96
2023/05/13 14:10:36;;;;;;;;;;;14.10;95.60;;;;;;6060078;23;19932;-96
2023/05/13 14:13:28;;;;;;;;;;;14.10;95.60;;;;;;6084219;23;19901;-96
2023/05/13 14:16:16;;;;;;;;;;;14.10;95.60;;;;;;6079752;23;19949;-96
2023/05/13 14:19:23;;;;;;;;;;;;;;;;;;;;;
2023/05/13 14:22:22;;;;;;;;;;;14.10;95.60;;;;;;6080198;23;19935;-96
2023/05/13 14:25:34;;;;;;;;;;;14.10;95.60;;;;;;6077982;23;19968;-96
2023/05/13 14:28:29;;;;;;;;;;;14.40;95.60;;;;;;6077495;23;19929;-96
2023/05/13 14:31:28;;;;;;;;;;;;;;;;;;;;;
2023/05/13 14:34:24;;;;;;;;;;;14.10;95.60;;;;;;6081589;23;19955;-96
2023/05/13 14:40:24;;;;;;;;;;;14.10;95.60;;;;;;6076851;23;19905;-96
2023/05/13 14:43:21;;;;;;;;;;;14.10;95.60;;;;;;6051692;23;19959;-96
2023/05/13 14:46:23;;;;;;;;;;;14.10;95.60;;;;;;6076224;23;19901;-96
2023/05/13 14:52:27;;;;;;;;;;;14.10;95.60;;;;;;5987377;24;20249;-96
2023/05/13 14:55:08;;;;;;;;;;;14.10;95.60;;;;;;5991716;24;19910;-96
2023/05/13 15:04:15;;;;;;;;;;;14.10;95.60;;;;;;5993511;24;19922;-96
2023/05/13 15:07:10;;;;;;;;;;;14.10;95.60;;;;;;5997019;24;19902;-96
2023/05/13 15:10:18;;;;;;;;;;;14.10;95.60;;;;;;5995546;24;19958;-96
2023/05/13 15:13:04;;;;;;;;;;;14.10;95.60;;;;;;5997347;24;19998;-96
2023/05/13 15:16:00;;;;;;;;;;;14.10;95.90;;;;;;6000212;23;19955;-96
2023/05/13 15:18:52;;;;;;;;;;;14.20;95.60;;;;;;6024057;23;19902;-96
2023/05/13 15:21:40;;;;;;;;;;;14.20;95.60;;;;;;5995105;23;19913;-96
2023/05/13 15:24:37;;;;;;;;;;;;;;;;;;;;;
2023/05/13 15:27:36;;;;;;;;;;;14.10;95.60;;;;;;6024926;23;19926;-96
2023/05/13 15:30:45;;;;;;;;;;;14.10;95.60;;;;;;6025335;23;19930;-96
2023/05/13 15:33:54;;;;;;;;;;;14.10;95.60;;;;;;6024578;23;19964;-96
2023/05/13 15:39:53;;;;;;;;;;;14.10;95.60;;;;;;5912481;24;19984;-96
2023/05/13 15:42:47;;;;;;;;;;;14.20;95.60;;;;;;5887553;24;19903;-96
2023/05/13 15:45:34;;;;;;;;;;;14.10;95.60;;;;;;5885354;24;19982;-96
2023/05/13 15:48:22;;;;;;;;;;;14.10;95.90;;;;;;5882358;24;19943;-96
2023/05/13 15:51:12;;;;;;;;;;;14.10;95.60;;;;;;5889068;24;20484;-96
2023/05/13 15:54:03;;;;;;;;;;;14.10;95.60;;;;;;5887799;24;19915;-96
2023/05/13 15:57:00;;;;;;;;;;;14.10;95.60;;;;;;5885088;24;19923;-96
2023/05/13 15:59:49;;;;;;;;;;;14.10;95.60;;;;;;5863695;24;19904;-96
2023/05/13 16:02:38;;;;;;;;;;;14.10;95.60;;;;;;5886252;24;19903;-96
2023/05/13 16:05:40;;;;;;;;;;;14.20;95.60;;;;;;5882009;24;20244;-96
2023/05/13 16:08:44;;;;;;;;;;;14.10;95.60;;;;;;5886248;24;19923;-96
2023/05/13 16:11:44;;;;;;;;;;;14.10;95.60;;;;;;5853021;24;19904;-96
2023/05/13 16:14:50;;;;;;;;;;;14.10;95.60;;;;;;5862258;24;19904;-96
2023/05/13 16:21:04;;;;;;;;;;;14.30;95.70;;;;;;5886770;24;19927;-96
2023/05/13 16:24:01;;;;;;;;;;;14.10;95.60;;;;;;5838393;24;19975;-96
2023/05/13 16:30:02;;;;;;;;;;;14.10;95.60;;;;;;5861099;24;19931;-96
2023/05/13 16:33:02;;;;;;;;;;;14.10;95.60;;;;;;5854634;24;19921;-96
2023/05/13 16:36:12;;;;;;;;;;;14.10;95.70;;;;;;5835766;24;19925;-96
2023/05/13 16:39:39;;;;;;;;;;;14.10;95.70;;;;;;5806559;24;19959;-96
2023/05/13 16:42:28;;;;;;;;;;;14.10;95.70;;;;;;5850921;24;19920;-96
2023/05/13 16:45:26;;;;;;;;;;;;;;;;;;;;;
2023/05/13 16:51:52;;;;;;;;;;;;;;;;;;;;;
2023/05/13 16:54:53;;;;;;;;;;;14.10;95.70;;;;;;5834537;24;19908;-96
2023/05/13 16:58:00;;;;;;;;;;;14.10;95.70;;;;;;5806035;24;19904;-96
2023/05/13 17:00:51;;;;;;;;;;;14.10;95.70;;;;;;5864795;24;19911;-96
2023/05/13 17:03:42;;;;;;;;;;;14.10;95.70;;;;;;5927092;24;19923;-96
2023/05/13 17:06:36;;;;;;;;;;;14.10;95.70;;;;;;5971778;24;19915;-96
2023/05/13 17:09:22;;;;;;;;;;;14.00;95.60;;;;;;5949588;24;19907;-96
2023/05/13 17:12:16;;;;;;;;;;;14.10;95.70;;;;;;5948739;24;19918;-96
2023/05/13 17:15:18;;;;;;;;;;;14.10;95.70;;;;;;5950318;23;19899;-96
2023/05/13 17:18:18;;;;;;;;;;;14.10;95.70;;;;;;6027889;23;19902;-96
2023/05/13 17:21:22;;;;;;;;;;;14.10;95.70;;;;;;6025355;23;19931;-96
2023/05/13 17:24:21;;;;;;;;;;;14.10;95.70;;;;;;5971104;24;19935;-96
2023/05/13 17:27:24;;;;;;;;;;;14.10;95.70;;;;;;5972754;24;19903;-96
2023/05/13 17:33:22;;;;;;;;;;;14.10;95.70;;;;;;5942000;24;20001;-96
2023/05/13 17:36:08;;;;;;;;;;;14.10;95.70;;;;;;5919523;24;19987;-96
2023/05/13 17:39:20;;;;;;;;;;;14.10;95.70;;;;;;5941989;24;19907;-96
2023/05/13 17:42:08;;;;;;;;;;;14.10;95.70;;;;;;5920185;24;19911;-96
2023/05/13 17:45:00;;;;;;;;;;;14.10;95.70;;;;;;5930601;23;19902;-96
2023/05/13 17:47:56;;;;;;;;;;;;;;;;;;;;;
2023/05/13 17:50:52;;;;;;;;;;;14.10;95.70;;;;;;6053338;23;19984;-96
2023/05/13 17:53:40;;;;;;;;;;;14.10;95.70;;;;;;6054054;23;19902;-96
2023/05/13 17:56:30;;;;;;;;;;;14.10;95.70;;;;;;6088193;23;19913;-96